createdAt,value
2016-05-22T00:00:01.279Z,0
2016-05-22T00:01:01.282Z,0
2016-05-22T00:02:01.284Z,0
2016-05-22T00:03:01.740Z,0
2016-05-22T00:04:01.446Z,0
2016-05-22T00:05:01.307Z,0
2016-05-22T00:06:01.310Z,0
2016-05-22T00:07:01.454Z,0
2016-05-22T00:08:01.300Z,0
2016-05-22T00:09:01.460Z,0
2016-05-22T00:10:01.478Z,0
2016-05-22T00:11:01.573Z,0
2016-05-22T00:12:04.593Z,0
2016-05-22T00:13:01.736Z,0
2016-05-22T00:14:01.472Z,0
2016-05-22T00:15:01.492Z,0
2016-05-22T00:16:01.478Z,0
2016-05-22T00:17:01.481Z,0
2016-05-22T00:18:01.342Z,0
2016-05-22T00:19:01.330Z,0
2016-05-22T00:20:01.317Z,0
2016-05-22T00:21:01.475Z,0
2016-05-22T00:22:01.494Z,0
2016-05-22T00:23:01.497Z,0
2016-05-22T00:24:01.233Z,0
2016-05-22T00:25:01.519Z,0
2016-05-22T00:26:01.521Z,0
2016-05-22T00:27:01.335Z,0
2016-05-22T00:28:02.542Z,0
2016-05-22T00:29:01.513Z,0
2016-05-22T00:30:01.375Z,0
2016-05-22T00:31:01.362Z,0
2016-05-22T00:32:01.505Z,0
2016-05-22T00:33:01.508Z,0
2016-05-22T00:34:01.510Z,0
2016-05-22T00:35:01.357Z,0
2016-05-22T00:36:01.516Z,0
2016-05-22T00:37:01.379Z,0
2016-05-22T00:38:01.537Z,0
2016-05-22T00:39:01.524Z,0
2016-05-22T00:40:01.543Z,0
2016-05-22T00:41:01.561Z,0
2016-05-22T00:42:01.564Z,0
2016-05-22T00:43:02.051Z,0
2016-05-22T00:44:01.553Z,0
2016-05-22T00:45:01.557Z,0
2016-05-22T00:46:01.559Z,0
2016-05-22T00:47:01.405Z,0
2016-05-22T00:48:01.565Z,0
2016-05-22T00:49:01.567Z,0
2016-05-22T00:50:01.725Z,0
2016-05-22T00:51:01.416Z,0
2016-05-22T00:52:01.403Z,0
2016-05-22T00:53:01.562Z,0
2016-05-22T00:54:01.564Z,0
2016-05-22T00:55:01.583Z,0
2016-05-22T00:56:01.570Z,0
2016-05-22T00:57:01.588Z,0
2016-05-22T00:58:01.325Z,0
2016-05-22T00:59:01.578Z,0
2016-05-22T01:00:01.597Z,0
2016-05-22T01:01:01.568Z,0
2016-05-22T01:02:01.571Z,0
2016-05-22T01:03:01.588Z,0
2016-05-22T01:04:01.591Z,0
2016-05-22T01:05:01.594Z,0
2016-05-22T01:06:01.424Z,0
2016-05-22T01:07:01.584Z,0
2016-05-22T01:08:01.571Z,0
2016-05-22T01:09:01.605Z,0
2016-05-22T01:10:01.592Z,0
2016-05-22T01:11:01.423Z,0
2016-05-22T01:12:01.582Z,0
2016-05-22T01:13:01.693Z,0
2016-05-22T01:14:01.446Z,0
2016-05-22T01:15:01.481Z,0
2016-05-22T01:16:01.639Z,0
2016-05-22T01:17:01.627Z,0
2016-05-22T01:18:01.629Z,0
2016-05-22T01:19:01.631Z,0
2016-05-22T01:20:01.478Z,0
2016-05-22T01:21:01.481Z,0
2016-05-22T01:22:01.625Z,0
2016-05-22T01:23:01.487Z,0
2016-05-22T01:24:01.473Z,0
2016-05-22T01:25:01.476Z,0
2016-05-22T01:26:01.635Z,0
2016-05-22T01:27:01.481Z,0
2016-05-22T01:28:01.500Z,0
2016-05-22T01:29:01.486Z,0
2016-05-22T01:30:01.661Z,0
2016-05-22T01:31:01.648Z,0
2016-05-22T01:32:01.494Z,0
2016-05-22T01:33:01.497Z,0
2016-05-22T01:34:01.657Z,0
2016-05-22T01:35:01.518Z,0
2016-05-22T01:36:01.646Z,0
2016-05-22T01:37:01.649Z,0
2016-05-22T01:38:01.652Z,0
2016-05-22T01:39:01.654Z,0
2016-05-22T01:40:01.345Z,0
2016-05-22T01:41:01.659Z,0
2016-05-22T01:42:01.491Z,0
2016-05-22T01:43:01.681Z,0
2016-05-22T01:44:01.652Z,0
2016-05-22T01:45:01.654Z,0
2016-05-22T01:46:01.532Z,0
2016-05-22T01:47:01.520Z,0
2016-05-22T01:48:01.382Z,0
2016-05-22T01:49:01.665Z,0
2016-05-22T01:50:01.543Z,0
2016-05-22T01:51:01.687Z,0
2016-05-22T01:52:01.689Z,0
2016-05-22T01:53:01.676Z,0
2016-05-22T01:54:01.678Z,0
2016-05-22T01:55:01.698Z,0
2016-05-22T01:56:01.684Z,0
2016-05-22T01:57:01.687Z,0
2016-05-22T01:58:01.705Z,0
2016-05-22T01:59:01.708Z,0
2016-05-22T02:00:01.711Z,0
2016-05-22T02:01:01.714Z,0
2016-05-22T02:02:01.700Z,0
2016-05-22T02:03:01.703Z,0
2016-05-22T02:04:01.393Z,0
2016-05-22T02:05:01.709Z,0
2016-05-22T02:06:01.555Z,0
2016-05-22T02:07:01.557Z,0
2016-05-22T02:08:01.561Z,0
2016-05-22T02:09:01.735Z,0
2016-05-22T02:10:01.707Z,0
2016-05-22T02:11:01.740Z,0
2016-05-22T02:12:01.727Z,0
2016-05-22T02:13:02.434Z,0
2016-05-22T02:14:01.562Z,0
2016-05-22T02:15:01.735Z,0
2016-05-22T02:16:01.723Z,0
2016-05-22T02:17:01.741Z,0
2016-05-22T02:18:01.728Z,0
2016-05-22T02:19:02.871Z,0
2016-05-22T02:20:01.749Z,0
2016-05-22T02:21:01.424Z,0
2016-05-22T02:22:01.739Z,0
2016-05-22T02:23:01.586Z,0
2016-05-22T02:24:01.791Z,0
2016-05-22T02:25:01.747Z,0
2016-05-22T02:26:01.750Z,0
2016-05-22T02:27:01.737Z,0
2016-05-22T02:28:01.474Z,0
2016-05-22T02:29:01.742Z,0
2016-05-22T02:30:01.605Z,0
2016-05-22T02:31:01.607Z,0
2016-05-22T02:32:01.610Z,0
2016-05-22T02:33:01.628Z,0
2016-05-22T02:34:01.600Z,0
2016-05-22T02:35:01.602Z,0
2016-05-22T02:36:01.761Z,0
2016-05-22T02:37:01.638Z,0
2016-05-22T02:38:01.766Z,0
2016-05-22T02:39:01.769Z,0
2016-05-22T02:40:01.460Z,0
2016-05-22T02:41:01.759Z,0
2016-05-22T02:42:01.808Z,0
2016-05-22T02:43:01.796Z,0
2016-05-22T02:44:01.782Z,0
2016-05-22T02:45:01.800Z,0
2016-05-22T02:46:01.788Z,0
2016-05-22T02:47:01.775Z,0
2016-05-22T02:48:01.793Z,0
2016-05-22T02:49:01.796Z,0
2016-05-22T02:50:01.767Z,0
2016-05-22T02:51:01.629Z,0
2016-05-22T02:52:01.648Z,0
2016-05-22T02:53:01.634Z,0
2016-05-22T02:54:01.809Z,0
2016-05-22T02:55:01.797Z,0
2016-05-22T02:56:01.799Z,0
2016-05-22T02:57:01.630Z,0
2016-05-22T02:58:02.320Z,0
2016-05-22T02:59:01.650Z,0
2016-05-22T03:00:01.810Z,0
2016-05-22T03:01:01.813Z,0
2016-05-22T03:02:01.691Z,0
2016-05-22T03:03:01.661Z,0
2016-05-22T03:04:01.632Z,0
2016-05-22T03:05:01.636Z,0
2016-05-22T03:06:01.810Z,0
2016-05-22T03:07:01.657Z,0
2016-05-22T03:08:01.832Z,0
2016-05-22T03:09:01.819Z,0
2016-05-22T03:10:01.821Z,0
2016-05-22T03:11:01.839Z,0
2016-05-22T03:12:01.826Z,0
2016-05-22T03:13:02.735Z,0
2016-05-22T03:14:01.816Z,0
2016-05-22T03:15:01.506Z,0
2016-05-22T03:16:01.681Z,0
2016-05-22T03:17:01.840Z,0
2016-05-22T03:18:01.826Z,0
2016-05-22T03:19:01.846Z,0
2016-05-22T03:20:01.832Z,0
2016-05-22T03:21:01.538Z,0
2016-05-22T03:22:01.822Z,0
2016-05-22T03:23:01.856Z,0
2016-05-22T03:24:01.843Z,0
2016-05-22T03:25:01.892Z,0
2016-05-22T03:26:01.848Z,0
2016-05-22T03:27:01.867Z,0
2016-05-22T03:28:02.541Z,0
2016-05-22T03:29:01.872Z,0
2016-05-22T03:30:01.735Z,0
2016-05-22T03:31:01.895Z,5
2016-05-22T03:32:01.944Z,5
2016-05-22T03:33:01.964Z,5
2016-05-22T03:34:01.873Z,5
2016-05-22T03:35:02.021Z,5
2016-05-22T03:36:01.863Z,5
2016-05-22T03:37:02.048Z,5
2016-05-22T03:38:01.891Z,10
2016-05-22T03:39:02.076Z,10
2016-05-22T03:40:01.915Z,10
2016-05-22T03:41:02.077Z,10
2016-05-22T03:42:02.068Z,10
2016-05-22T03:43:02.137Z,15
2016-05-22T03:44:02.098Z,15
2016-05-22T03:45:01.650Z,15
2016-05-22T03:46:02.092Z,15
2016-05-22T03:47:02.112Z,20
2016-05-22T03:48:01.944Z,20
2016-05-22T03:49:02.121Z,20
2016-05-22T03:50:01.951Z,25
2016-05-22T03:51:01.955Z,25
2016-05-22T03:52:02.114Z,25
2016-05-22T03:53:02.117Z,30
2016-05-22T03:54:01.964Z,30
2016-05-22T03:55:02.108Z,30
2016-05-22T03:56:02.111Z,30
2016-05-22T03:57:02.113Z,30
2016-05-22T03:58:02.288Z,30
2016-05-22T03:59:02.118Z,35
2016-05-22T04:00:01.980Z,35
2016-05-22T04:01:02.124Z,40
2016-05-22T04:02:01.971Z,40
2016-05-22T04:03:02.113Z,45
2016-05-22T04:04:02.163Z,50
2016-05-22T04:05:02.134Z,50
2016-05-22T04:06:02.121Z,55
2016-05-22T04:07:02.156Z,55
2016-05-22T04:08:02.127Z,55
2016-05-22T04:09:02.114Z,55
2016-05-22T04:10:01.992Z,60
2016-05-22T04:11:02.135Z,60
2016-05-22T04:12:02.138Z,65
2016-05-22T04:13:02.251Z,85
2016-05-22T04:14:01.987Z,90
2016-05-22T04:15:02.005Z,85
2016-05-22T04:16:02.148Z,70
2016-05-22T04:17:02.167Z,75
2016-05-22T04:18:02.185Z,75
2016-05-22T04:19:02.017Z,75
2016-05-22T04:20:02.176Z,90
2016-05-22T04:21:02.005Z,105
2016-05-22T04:22:02.181Z,120
2016-05-22T04:23:02.167Z,120
2016-05-22T04:24:02.233Z,130
2016-05-22T04:25:02.236Z,125
2016-05-22T04:26:02.192Z,125
2016-05-22T04:27:02.194Z,125
2016-05-22T04:28:02.181Z,135
2016-05-22T04:29:02.044Z,145
2016-05-22T04:30:02.186Z,130
2016-05-22T04:31:02.049Z,125
2016-05-22T04:32:02.176Z,130
2016-05-22T04:33:02.054Z,125
2016-05-22T04:34:02.182Z,115
2016-05-22T04:35:02.027Z,110
2016-05-22T04:36:02.187Z,110
2016-05-22T04:37:02.205Z,110
2016-05-22T04:38:02.208Z,110
2016-05-22T04:39:02.210Z,110
2016-05-22T04:40:02.198Z,115
2016-05-22T04:41:02.200Z,135
2016-05-22T04:42:02.062Z,155
2016-05-22T04:43:02.268Z,165
2016-05-22T04:44:02.209Z,180
2016-05-22T04:45:02.086Z,195
2016-05-22T04:46:02.089Z,210
2016-05-22T04:47:02.076Z,230
2016-05-22T04:48:02.234Z,230
2016-05-22T04:49:02.253Z,235
2016-05-22T04:50:02.256Z,260
2016-05-22T04:51:02.103Z,265
2016-05-22T04:52:01.933Z,255
2016-05-22T04:53:02.264Z,235
2016-05-22T04:54:02.250Z,245
2016-05-22T04:55:02.269Z,265
2016-05-22T04:56:02.116Z,275
2016-05-22T04:57:02.118Z,275
2016-05-22T04:58:01.964Z,295
2016-05-22T04:59:02.280Z,240
2016-05-22T05:00:02.111Z,205
2016-05-22T05:01:02.129Z,220
2016-05-22T05:02:01.975Z,250
2016-05-22T05:03:02.149Z,280
2016-05-22T05:04:02.277Z,295
2016-05-22T05:05:02.140Z,290
2016-05-22T05:06:02.205Z,355
2016-05-22T05:07:02.223Z,360
2016-05-22T05:08:02.163Z,275
2016-05-22T05:09:02.166Z,275
2016-05-22T05:10:02.340Z,295
2016-05-22T05:11:02.328Z,285
2016-05-22T05:12:02.346Z,260
2016-05-22T05:13:02.301Z,230
2016-05-22T05:14:02.164Z,210
2016-05-22T05:15:02.042Z,200
2016-05-22T05:16:02.184Z,200
2016-05-22T05:17:02.344Z,365
2016-05-22T05:18:02.206Z,360
2016-05-22T05:19:02.364Z,350
2016-05-22T05:20:02.367Z,230
2016-05-22T05:21:02.417Z,190
2016-05-22T05:22:02.264Z,185
2016-05-22T05:23:02.392Z,185
2016-05-22T05:24:02.238Z,185
2016-05-22T05:25:02.396Z,185
2016-05-22T05:26:02.399Z,180
2016-05-22T05:27:02.262Z,180
2016-05-22T05:28:02.842Z,180
2016-05-22T05:29:02.423Z,175
2016-05-22T05:30:02.254Z,175
2016-05-22T05:31:02.272Z,180
2016-05-22T05:32:02.430Z,170
2016-05-22T05:33:02.450Z,170
2016-05-22T05:34:02.468Z,175
2016-05-22T05:35:02.439Z,175
2016-05-22T05:36:02.442Z,175
2016-05-22T05:37:02.445Z,265
2016-05-22T05:38:02.447Z,290
2016-05-22T05:39:02.310Z,310
2016-05-22T05:40:02.452Z,305
2016-05-22T05:41:02.315Z,300
2016-05-22T05:42:02.474Z,290
2016-05-22T05:43:02.352Z,350
2016-05-22T05:44:02.479Z,335
2016-05-22T05:45:02.340Z,330
2016-05-22T05:46:02.343Z,310
2016-05-22T05:47:02.362Z,360
2016-05-22T05:48:02.505Z,360
2016-05-22T05:49:02.509Z,335
2016-05-22T05:50:02.511Z,375
2016-05-22T05:51:02.529Z,395
2016-05-22T05:52:02.531Z,400
2016-05-22T05:53:02.535Z,390
2016-05-22T05:54:02.553Z,410
2016-05-22T05:55:02.556Z,275
2016-05-22T05:56:02.589Z,425
2016-05-22T05:57:02.639Z,425
2016-05-22T05:58:02.642Z,405
2016-05-22T05:59:02.581Z,410
2016-05-22T06:00:02.428Z,405
2016-05-22T06:01:02.306Z,405
2016-05-22T06:02:02.605Z,385
2016-05-22T06:03:02.608Z,400
2016-05-22T06:04:02.673Z,410
2016-05-22T06:05:02.505Z,400
2016-05-22T06:06:02.647Z,390
2016-05-22T06:07:02.650Z,335
2016-05-22T06:08:02.638Z,325
2016-05-22T06:09:02.499Z,280
2016-05-22T06:10:02.690Z,280
2016-05-22T06:11:02.536Z,285
2016-05-22T06:12:02.695Z,295
2016-05-22T06:13:02.729Z,310
2016-05-22T06:14:02.716Z,320
2016-05-22T06:15:02.735Z,300
2016-05-22T06:16:02.424Z,320
2016-05-22T06:17:02.724Z,335
2016-05-22T06:18:02.587Z,350
2016-05-22T06:19:02.746Z,335
2016-05-22T06:20:02.763Z,355
2016-05-22T06:21:02.765Z,350
2016-05-22T06:22:02.784Z,350
2016-05-22T06:23:02.787Z,325
2016-05-22T06:24:02.649Z,320
2016-05-22T06:25:02.809Z,335
2016-05-22T06:26:02.654Z,340
2016-05-22T06:27:02.844Z,335
2016-05-22T06:28:02.848Z,360
2016-05-22T06:29:02.694Z,355
2016-05-22T06:30:02.853Z,345
2016-05-22T06:31:02.700Z,340
2016-05-22T06:32:02.718Z,335
2016-05-22T06:33:02.735Z,335
2016-05-22T06:34:02.894Z,325
2016-05-22T06:35:02.897Z,310
2016-05-22T06:36:02.900Z,305
2016-05-22T06:37:02.919Z,300
2016-05-22T06:38:02.765Z,305
2016-05-22T06:39:02.938Z,300
2016-05-22T06:40:02.801Z,290
2016-05-22T06:41:02.960Z,295
2016-05-22T06:42:02.979Z,300
2016-05-22T06:43:03.466Z,300
2016-05-22T06:44:03.000Z,320
2016-05-22T06:45:02.690Z,335
2016-05-22T06:46:03.004Z,320
2016-05-22T06:47:03.024Z,340
2016-05-22T06:48:03.026Z,325
2016-05-22T06:49:03.029Z,345
2016-05-22T06:50:03.048Z,335
2016-05-22T06:51:03.096Z,345
2016-05-22T06:52:03.098Z,340
2016-05-22T06:53:02.930Z,335
2016-05-22T06:54:03.104Z,325
2016-05-22T06:55:03.107Z,335
2016-05-22T06:56:02.954Z,350
2016-05-22T06:57:03.128Z,345
2016-05-22T06:58:03.100Z,350
2016-05-22T06:59:03.165Z,345
2016-05-22T07:00:03.152Z,335
2016-05-22T07:01:03.015Z,345
2016-05-22T07:02:03.173Z,345
2016-05-22T07:03:03.191Z,330
2016-05-22T07:04:03.210Z,320
2016-05-22T07:05:03.228Z,315
2016-05-22T07:06:03.215Z,305
2016-05-22T07:07:03.233Z,300
2016-05-22T07:08:03.252Z,300
2016-05-22T07:09:03.255Z,285
2016-05-22T07:10:03.288Z,305
2016-05-22T07:11:03.307Z,285
2016-05-22T07:12:03.310Z,300
2016-05-22T07:13:04.155Z,325
2016-05-22T07:14:03.315Z,325
2016-05-22T07:15:03.333Z,345
2016-05-22T07:16:03.335Z,315
2016-05-22T07:17:03.354Z,325
2016-05-22T07:18:03.201Z,320
2016-05-22T07:19:03.204Z,335
2016-05-22T07:20:03.378Z,340
2016-05-22T07:21:03.396Z,345
2016-05-22T07:22:03.415Z,340
2016-05-22T07:23:03.105Z,340
2016-05-22T07:24:03.435Z,315
2016-05-22T07:25:03.423Z,330
2016-05-22T07:26:03.457Z,310
2016-05-22T07:27:03.475Z,335
2016-05-22T07:28:03.665Z,340
2016-05-22T07:29:03.480Z,340
2016-05-22T07:30:03.530Z,340
2016-05-22T07:31:03.517Z,340
2016-05-22T07:32:03.379Z,345
2016-05-22T07:33:03.538Z,345
2016-05-22T07:34:03.540Z,345
2016-05-22T07:35:03.558Z,340
2016-05-22T07:36:03.562Z,340
2016-05-22T07:37:03.611Z,340
2016-05-22T07:38:03.614Z,350
2016-05-22T07:39:03.616Z,360
2016-05-22T07:40:03.478Z,365
2016-05-22T07:41:03.480Z,370
2016-05-22T07:42:03.640Z,375
2016-05-22T07:43:04.721Z,375
2016-05-22T07:44:03.677Z,375
2016-05-22T07:45:03.679Z,370
2016-05-22T07:46:03.698Z,370
2016-05-22T07:47:03.559Z,370
2016-05-22T07:48:03.421Z,365
2016-05-22T07:49:03.800Z,365
2016-05-22T07:50:03.755Z,360
2016-05-22T07:51:03.757Z,360
2016-05-22T07:52:03.760Z,345
2016-05-22T07:53:03.779Z,355
2016-05-22T07:54:03.797Z,355
2016-05-22T07:55:03.832Z,305
2016-05-22T07:56:03.537Z,310
2016-05-22T07:57:03.836Z,315
2016-05-22T07:58:04.449Z,315
2016-05-22T07:59:03.889Z,310
2016-05-22T08:00:03.891Z,345
2016-05-22T08:01:03.739Z,330
2016-05-22T08:02:03.898Z,320
2016-05-22T08:03:03.915Z,340
2016-05-22T08:04:03.792Z,320
2016-05-22T08:05:03.953Z,310
2016-05-22T08:06:03.970Z,315
2016-05-22T08:07:03.972Z,320
2016-05-22T08:08:03.975Z,295
2016-05-22T08:09:03.978Z,310
2016-05-22T08:10:04.013Z,300
2016-05-22T08:11:04.031Z,305
2016-05-22T08:12:04.033Z,305
2016-05-22T08:13:04.099Z,310
2016-05-22T08:14:03.898Z,275
2016-05-22T08:15:04.072Z,300
2016-05-22T08:16:04.090Z,310
2016-05-22T08:17:03.937Z,300
2016-05-22T08:18:04.112Z,300
2016-05-22T08:19:04.115Z,295
2016-05-22T08:20:04.132Z,280
2016-05-22T08:21:04.151Z,295
2016-05-22T08:22:04.170Z,290
2016-05-22T08:23:04.173Z,285
2016-05-22T08:24:04.034Z,295
2016-05-22T08:25:04.193Z,290
2016-05-22T08:26:04.227Z,290
2016-05-22T08:27:04.229Z,300
2016-05-22T08:28:04.170Z,300
2016-05-22T08:29:04.251Z,300
2016-05-22T08:30:04.254Z,295
2016-05-22T08:31:04.272Z,300
2016-05-22T08:32:04.306Z,295
2016-05-22T08:33:04.152Z,290
2016-05-22T08:34:04.312Z,290
2016-05-22T08:35:04.158Z,290
2016-05-22T08:36:04.379Z,285
2016-05-22T08:37:04.038Z,285
2016-05-22T08:38:04.213Z,280
2016-05-22T08:39:04.386Z,275
2016-05-22T08:40:04.390Z,275
2016-05-22T08:41:03.986Z,275
2016-05-22T08:42:04.427Z,275
2016-05-22T08:43:05.522Z,270
2016-05-22T08:44:04.291Z,270
2016-05-22T08:45:04.497Z,265
2016-05-22T08:46:04.563Z,270
2016-05-22T08:47:04.174Z,265
2016-05-22T08:48:04.193Z,265
2016-05-22T08:49:04.507Z,255
2016-05-22T08:50:04.526Z,255
2016-05-22T08:51:04.388Z,240
2016-05-22T08:52:04.390Z,250
2016-05-22T08:53:04.565Z,235
2016-05-22T08:54:04.584Z,245
2016-05-22T08:55:04.462Z,225
2016-05-22T08:56:04.636Z,225
2016-05-22T08:57:04.623Z,215
2016-05-22T08:58:04.532Z,225
2016-05-22T08:59:04.487Z,205
2016-05-22T09:00:04.647Z,215
2016-05-22T09:01:04.524Z,225
2016-05-22T09:02:04.683Z,235
2016-05-22T09:03:04.701Z,235
2016-05-22T09:04:04.704Z,240
2016-05-22T09:05:04.706Z,240
2016-05-22T09:06:04.756Z,240
2016-05-22T09:07:04.744Z,240
2016-05-22T09:08:04.762Z,235
2016-05-22T09:09:04.764Z,240
2016-05-22T09:10:04.783Z,235
2016-05-22T09:11:04.630Z,240
2016-05-22T09:12:04.491Z,240
2016-05-22T09:13:05.869Z,240
2016-05-22T09:14:04.810Z,240
2016-05-22T09:15:04.828Z,240
2016-05-22T09:16:04.861Z,235
2016-05-22T09:17:04.879Z,240
2016-05-22T09:18:04.851Z,235
2016-05-22T09:19:04.869Z,240
2016-05-22T09:20:04.888Z,240
2016-05-22T09:21:04.718Z,240
2016-05-22T09:22:04.940Z,240
2016-05-22T09:23:04.912Z,240
2016-05-22T09:24:04.946Z,240
2016-05-22T09:25:04.917Z,240
2016-05-22T09:26:04.935Z,240
2016-05-22T09:27:04.938Z,240
2016-05-22T09:28:05.237Z,240
2016-05-22T09:29:04.975Z,240
2016-05-22T09:30:04.821Z,240
2016-05-22T09:31:04.824Z,240
2016-05-22T09:32:04.921Z,240
2016-05-22T09:33:04.829Z,235
2016-05-22T09:34:04.691Z,235
2016-05-22T09:35:04.694Z,240
2016-05-22T09:36:05.009Z,235
2016-05-22T09:37:05.042Z,235
2016-05-22T09:38:04.874Z,235
2016-05-22T09:39:05.048Z,240
2016-05-22T09:40:05.051Z,235
2016-05-22T09:41:05.053Z,235
2016-05-22T09:42:05.072Z,235
2016-05-22T09:43:05.184Z,235
2016-05-22T09:44:05.108Z,235
2016-05-22T09:45:05.111Z,235
2016-05-22T09:46:05.099Z,235
2016-05-22T09:47:05.117Z,235
2016-05-22T09:48:04.963Z,235
2016-05-22T09:49:04.982Z,235
2016-05-22T09:50:04.985Z,240
2016-05-22T09:51:05.143Z,240
2016-05-22T09:52:05.021Z,240
2016-05-22T09:53:05.165Z,240
2016-05-22T09:54:05.183Z,245
2016-05-22T09:55:05.185Z,245
2016-05-22T09:56:05.188Z,245
2016-05-22T09:57:05.206Z,245
2016-05-22T09:58:05.787Z,245
2016-05-22T09:59:05.227Z,250
2016-05-22T10:00:05.229Z,250
2016-05-22T10:01:05.232Z,255
2016-05-22T10:02:05.110Z,265
2016-05-22T10:03:05.112Z,260
2016-05-22T10:04:05.100Z,265
2016-05-22T10:05:05.103Z,265
2016-05-22T10:06:05.434Z,270
2016-05-22T10:07:05.156Z,270
2016-05-22T10:08:05.298Z,270
2016-05-22T10:09:05.161Z,270
2016-05-22T10:10:05.303Z,270
2016-05-22T10:11:05.150Z,270
2016-05-22T10:12:05.184Z,265
2016-05-22T10:13:05.343Z,270
2016-05-22T10:14:05.377Z,275
2016-05-22T10:15:05.349Z,270
2016-05-22T10:16:05.054Z,270
2016-05-22T10:17:05.058Z,265
2016-05-22T10:18:05.231Z,260
2016-05-22T10:19:05.406Z,270
2016-05-22T10:20:05.393Z,270
2016-05-22T10:21:05.396Z,265
2016-05-22T10:22:05.399Z,270
2016-05-22T10:23:05.416Z,270
2016-05-22T10:24:05.451Z,270
2016-05-22T10:25:05.126Z,270
2016-05-22T10:26:05.299Z,270
2016-05-22T10:27:05.318Z,270
2016-05-22T10:28:05.618Z,260
2016-05-22T10:29:05.307Z,265
2016-05-22T10:30:05.498Z,265
2016-05-22T10:31:05.484Z,265
2016-05-22T10:32:05.504Z,265
2016-05-22T10:33:05.351Z,265
2016-05-22T10:34:05.525Z,270
2016-05-22T10:35:05.543Z,265
2016-05-22T10:36:05.421Z,270
2016-05-22T10:37:05.408Z,275
2016-05-22T10:38:05.489Z,280
2016-05-22T10:39:05.428Z,285
2016-05-22T10:40:05.556Z,280
2016-05-22T10:41:05.653Z,300
2016-05-22T10:42:05.593Z,310
2016-05-22T10:43:05.939Z,310
2016-05-22T10:44:05.458Z,320
2016-05-22T10:45:05.632Z,325
2016-05-22T10:46:05.636Z,335
2016-05-22T10:47:05.621Z,335
2016-05-22T10:48:05.655Z,335
2016-05-22T10:49:05.486Z,340
2016-05-22T10:50:05.693Z,345
2016-05-22T10:51:05.664Z,345
2016-05-22T10:52:05.682Z,340
2016-05-22T10:53:05.685Z,335
2016-05-22T10:54:05.672Z,340
2016-05-22T10:55:05.722Z,350
2016-05-22T10:56:05.725Z,345
2016-05-22T10:57:05.570Z,335
2016-05-22T10:58:06.573Z,335
2016-05-22T10:59:06.107Z,340
2016-05-22T11:00:05.735Z,340
2016-05-22T11:01:05.769Z,325
2016-05-22T11:02:05.756Z,325
2016-05-22T11:03:05.478Z,335
2016-05-22T11:04:05.777Z,325
2016-05-22T11:05:05.687Z,315
2016-05-22T11:06:05.642Z,315
2016-05-22T11:07:05.800Z,315
2016-05-22T11:08:05.647Z,310
2016-05-22T11:09:05.822Z,315
2016-05-22T11:10:05.839Z,315
2016-05-22T11:11:05.687Z,315
2016-05-22T11:12:05.533Z,320
2016-05-22T11:13:05.567Z,315
2016-05-22T11:14:05.741Z,310
2016-05-22T11:15:05.713Z,305
2016-05-22T11:16:05.888Z,295
2016-05-22T11:17:05.891Z,285
2016-05-22T11:18:05.908Z,275
2016-05-22T11:19:05.911Z,270
2016-05-22T11:20:05.773Z,265
2016-05-22T11:21:05.932Z,270
2016-05-22T11:22:05.950Z,280
2016-05-22T11:23:05.938Z,280
2016-05-22T11:24:05.956Z,285
2016-05-22T11:25:05.974Z,280
2016-05-22T11:26:05.977Z,275
2016-05-22T11:27:05.996Z,270
2016-05-22T11:28:06.513Z,265
2016-05-22T11:29:06.219Z,265
2016-05-22T11:30:06.003Z,265
2016-05-22T11:31:06.021Z,255
2016-05-22T11:32:05.868Z,255
2016-05-22T11:33:06.043Z,255
2016-05-22T11:34:06.046Z,260
2016-05-22T11:35:06.095Z,265
2016-05-22T11:36:05.754Z,275
2016-05-22T11:37:06.070Z,280
2016-05-22T11:38:06.072Z,285
2016-05-22T11:39:05.778Z,285
2016-05-22T11:40:05.795Z,280
2016-05-22T11:41:06.142Z,290
2016-05-22T11:42:06.098Z,290
2016-05-22T11:43:06.101Z,290
2016-05-22T11:44:05.853Z,290
2016-05-22T11:45:06.137Z,295
2016-05-22T11:46:06.140Z,305
2016-05-22T11:47:06.143Z,300
2016-05-22T11:48:06.161Z,300
2016-05-22T11:49:06.007Z,300
2016-05-22T11:50:06.214Z,300
2016-05-22T11:51:06.185Z,305
2016-05-22T11:52:06.203Z,310
2016-05-22T11:53:06.097Z,305
2016-05-22T11:54:06.208Z,305
2016-05-22T11:55:06.086Z,310
2016-05-22T11:56:06.214Z,315
2016-05-22T11:57:06.232Z,325
2016-05-22T11:58:06.610Z,320
2016-05-22T11:59:06.799Z,320
2016-05-22T12:00:06.099Z,320
2016-05-22T12:01:06.274Z,325
2016-05-22T12:02:06.293Z,320
2016-05-22T12:03:06.311Z,330
2016-05-22T12:04:06.313Z,340
2016-05-22T12:05:06.207Z,350
2016-05-22T12:06:06.459Z,355
2016-05-22T12:07:06.337Z,355
2016-05-22T12:08:06.340Z,350
2016-05-22T12:09:06.030Z,355
2016-05-22T12:10:06.204Z,350
2016-05-22T12:11:06.301Z,345
2016-05-22T12:12:06.226Z,345
2016-05-22T12:13:06.463Z,340
2016-05-22T12:14:06.418Z,340
2016-05-22T12:15:06.125Z,335
2016-05-22T12:16:06.439Z,320
2016-05-22T12:17:06.427Z,325
2016-05-22T12:18:06.430Z,325
2016-05-22T12:19:06.307Z,330
2016-05-22T12:20:06.310Z,340
2016-05-22T12:21:06.187Z,355
2016-05-22T12:22:06.315Z,345
2016-05-22T12:23:06.318Z,365
2016-05-22T12:24:06.164Z,355
2016-05-22T12:25:06.245Z,365
2016-05-22T12:26:06.514Z,355
2016-05-22T12:27:06.188Z,340
2016-05-22T12:28:06.081Z,345
2016-05-22T12:29:06.537Z,350
2016-05-22T12:30:06.227Z,340
2016-05-22T12:31:06.573Z,340
2016-05-22T12:32:06.560Z,335
2016-05-22T12:33:06.563Z,340
2016-05-22T12:34:06.425Z,345
2016-05-22T12:35:06.584Z,345
2016-05-22T12:36:06.600Z,330
2016-05-22T12:37:06.655Z,320
2016-05-22T12:38:06.522Z,325
2016-05-22T12:39:06.700Z,330
2016-05-22T12:40:07.019Z,330
2016-05-22T12:41:06.783Z,320
2016-05-22T12:42:06.606Z,310
2016-05-22T12:43:07.116Z,320
2016-05-22T12:44:07.250Z,330
2016-05-22T12:45:06.838Z,325
2016-05-22T12:46:06.687Z,330
2016-05-22T12:47:06.850Z,325
2016-05-22T12:48:06.964Z,325
2016-05-22T12:49:06.876Z,340
2016-05-22T12:50:06.755Z,340
2016-05-22T12:51:06.745Z,340
2016-05-22T12:52:06.748Z,345
2016-05-22T12:53:06.924Z,345
2016-05-22T12:54:06.911Z,340
2016-05-22T12:55:06.915Z,325
2016-05-22T12:56:06.934Z,325
2016-05-22T12:57:06.937Z,315
2016-05-22T12:58:07.096Z,300
2016-05-22T12:59:06.677Z,290
2016-05-22T13:00:07.275Z,295
2016-05-22T13:01:06.980Z,280
2016-05-22T13:02:07.014Z,290
2016-05-22T13:03:07.001Z,290
2016-05-22T13:04:07.005Z,290
2016-05-22T13:05:06.867Z,285
2016-05-22T13:06:06.902Z,280
2016-05-22T13:07:06.888Z,295
2016-05-22T13:08:07.048Z,300
2016-05-22T13:09:07.066Z,305
2016-05-22T13:10:07.068Z,305
2016-05-22T13:11:07.086Z,300
2016-05-22T13:12:06.948Z,320
2016-05-22T13:13:07.842Z,320
2016-05-22T13:14:07.111Z,320
2016-05-22T13:15:07.114Z,310
2016-05-22T13:16:07.131Z,295
2016-05-22T13:17:07.462Z,280
2016-05-22T13:18:07.153Z,285
2016-05-22T13:19:07.155Z,280
2016-05-22T13:20:07.158Z,280
2016-05-22T13:21:07.161Z,280
2016-05-22T13:22:07.194Z,285
2016-05-22T13:23:07.025Z,295
2016-05-22T13:24:07.059Z,285
2016-05-22T13:25:06.906Z,285
2016-05-22T13:26:06.908Z,275
2016-05-22T13:27:07.082Z,265
2016-05-22T13:28:07.430Z,265
2016-05-22T13:29:07.572Z,265
2016-05-22T13:30:07.262Z,265
2016-05-22T13:31:07.110Z,270
2016-05-22T13:32:09.143Z,270
2016-05-22T13:33:07.302Z,290
2016-05-22T13:34:07.290Z,295
2016-05-22T13:35:07.151Z,310
2016-05-22T13:36:07.154Z,325
2016-05-22T13:37:07.047Z,335
2016-05-22T13:38:07.176Z,335
2016-05-22T13:39:07.178Z,345
2016-05-22T13:40:07.352Z,350
2016-05-22T13:41:07.354Z,345
2016-05-22T13:42:07.061Z,335
2016-05-22T13:43:07.407Z,330
2016-05-22T13:44:07.456Z,330
2016-05-22T13:45:07.413Z,330
2016-05-22T13:46:07.400Z,330
2016-05-22T13:47:07.418Z,330
2016-05-22T13:48:07.702Z,305
2016-05-22T13:49:07.126Z,295
2016-05-22T13:50:07.442Z,285
2016-05-22T13:51:07.460Z,275
2016-05-22T13:52:07.463Z,270
2016-05-22T13:53:07.169Z,270
2016-05-22T13:54:07.499Z,270
2016-05-22T13:55:07.189Z,275
2016-05-22T13:56:07.177Z,285
2016-05-22T13:57:07.351Z,290
2016-05-22T13:58:07.605Z,300
2016-05-22T13:59:08.060Z,300
2016-05-22T14:00:07.546Z,305
2016-05-22T14:01:07.565Z,305
2016-05-22T14:02:07.411Z,300